»·PEaware :: WAT3512 KTUS-KTCC

WAT3512 :: KTUS-KTCC

FLIGHT INFORMATION

Flight Status: Arrived
Operator:
Walker Air Transport
More flights by this operator :: More flights under this callsign
Pilot: Richard A. (43314)
Aircraft: BEECH AIRCRAFT SUPER KING AIR 350
(B350)
More flights by this aircraft type
Origin: KTUS Tucson Intl
United States
Destination: KTCC Tucumcari Mun
United States
More flights between these airports :: More routes between these airports
Route: TUS8 MESCA SSO J104 ONM V264 TCC
File this flight plan on PilotEdge
Remarks: RMK / SIMBRIEF
Altitude:
(Current/Filed)
25,000ft
Speed:
(Current/Filed)
314kts
Departed: 05-Jul-23 11:08 AM
Arrived: 05-Jul-23 12:45 PM
Distance/Time
Traveled:
410nm/1:37
Distance/Time
To Go:
Arrived

Flight Plot

Page will automatically refresh every two minutes.

Flight plan parsing failed; only flown route is shown


Map Options




Map Legend


Flown Route
Filed Route
Departure Airport
Arrival Airport
Navaid (VOR, NDB)
Fix

Horizontal Profiles

Position Reports

Time Latitude Longitude Heading Altitude Ground
Speed
05-Jul-23 10:07 32.124550 -110.944798 223 2578ft 0kts
05-Jul-23 10:08 32.124550 -110.944798 223 2578ft 0kts
05-Jul-23 10:09 32.124550 -110.944798 223 2578ft 0kts
05-Jul-23 10:10 32.124550 -110.944798 223 2578ft 0kts
05-Jul-23 10:11 32.124550 -110.944798 223 2578ft 0kts
05-Jul-23 10:12 32.124550 -110.944798 223 2578ft 0kts
05-Jul-23 10:13 32.124550 -110.944798 223 2578ft 0kts
05-Jul-23 10:14 32.124550 -110.944798 223 2578ft 0kts
05-Jul-23 10:15 32.124550 -110.944798 223 2578ft 0kts
05-Jul-23 10:16 32.124550 -110.944798 223 2578ft 0kts
05-Jul-23 10:17 32.124550 -110.944798 223 2578ft 0kts
05-Jul-23 10:18 32.124550 -110.944798 223 2578ft 0kts
05-Jul-23 10:19 32.124550 -110.944798 223 2578ft 0kts
05-Jul-23 10:20 32.124550 -110.944798 223 2578ft 0kts
05-Jul-23 10:21 32.124550 -110.944798 223 2578ft 0kts
05-Jul-23 10:22 32.124550 -110.944798 223 2578ft 0kts
05-Jul-23 10:23 32.124550 -110.944798 223 2578ft 0kts
05-Jul-23 10:24 32.124550 -110.944798 223 2578ft 0kts
05-Jul-23 10:25 32.124550 -110.944798 223 2578ft 0kts
05-Jul-23 10:26 32.124550 -110.944798 223 2578ft 0kts
05-Jul-23 10:27 32.124550 -110.944798 223 2578ft 0kts
05-Jul-23 10:28 32.124550 -110.944798 223 2578ft 0kts
05-Jul-23 10:29 32.124550 -110.944798 223 2578ft 0kts
05-Jul-23 10:30 32.124550 -110.944798 223 2578ft 0kts
05-Jul-23 10:31 32.124550 -110.944798 223 2578ft 0kts
05-Jul-23 10:32 32.124550 -110.944798 223 2578ft 0kts
05-Jul-23 10:33 32.124550 -110.944798 223 2578ft 0kts
05-Jul-23 10:34 32.124550 -110.944798 223 2578ft 0kts
05-Jul-23 10:35 32.124550 -110.944798 223 2578ft 0kts
05-Jul-23 10:36 32.124550 -110.944798 223 2578ft 0kts
05-Jul-23 10:37 32.124550 -110.944798 223 2578ft 0kts
05-Jul-23 10:38 32.124550 -110.944798 223 2578ft 0kts
05-Jul-23 10:39 32.124550 -110.944798 223 2578ft 0kts
05-Jul-23 10:40 32.124550 -110.944798 223 2578ft 0kts
05-Jul-23 10:41 32.124550 -110.944798 223 2578ft 0kts
05-Jul-23 10:42 32.124550 -110.944798 223 2578ft 0kts
05-Jul-23 10:43 32.124550 -110.944798 223 2578ft 0kts
05-Jul-23 10:44 32.124550 -110.944798 223 2578ft 0kts
05-Jul-23 10:45 32.124550 -110.944798 223 2578ft 0kts
05-Jul-23 10:46 32.124550 -110.944798 223 2578ft 0kts
05-Jul-23 10:47 32.124550 -110.944798 223 2578ft 0kts
05-Jul-23 10:48 32.124533 -110.944817 223 2578ft 1kts
05-Jul-23 10:49 32.124841 -110.946460 315 2575ft 7kts
05-Jul-23 10:50 32.123759 -110.945833 135 2578ft 8kts
05-Jul-23 10:51 32.121653 -110.943356 136 2587ft 13kts
05-Jul-23 10:52 32.118932 -110.940177 133 2598ft 12kts
05-Jul-23 10:53 32.116459 -110.937281 135 2606ft 11kts
05-Jul-23 10:54 32.114287 -110.934733 135 2614ft 11kts
05-Jul-23 10:55 32.112001 -110.932059 133 2622ft 11kts
05-Jul-23 10:56 32.109679 -110.929314 134 2628ft 12kts
05-Jul-23 10:57 32.107404 -110.926633 132 2636ft 11kts
05-Jul-23 10:58 32.105214 -110.924106 134 2646ft 10kts
05-Jul-23 10:59 32.103691 -110.922320 136 2651ft 4kts
05-Jul-23 11:00 32.103113 -110.922321 225 2651ft 0kts
05-Jul-23 11:01 32.103113 -110.922321 224 2651ft 0kts
05-Jul-23 11:02 32.103113 -110.922321 225 2651ft 0kts
05-Jul-23 11:03 32.103113 -110.922321 225 2651ft 0kts
05-Jul-23 11:04 32.103113 -110.922321 225 2651ft 0kts
05-Jul-23 11:05 32.103113 -110.922321 225 2651ft 0kts
05-Jul-23 11:06 32.102857 -110.923836 311 2647ft 7kts
05-Jul-23 11:07 32.119018 -110.942679 313 2994ft 149kts
05-Jul-23 11:08 32.148854 -110.925093 104 4858ft 175kts
05-Jul-23 11:09 32.111031 -110.908437 196 6653ft 156kts
05-Jul-23 11:10 32.071644 -110.902860 112 7961ft 167kts
05-Jul-23 11:11 32.064292 -110.847574 120 9071ft 175kts
05-Jul-23 11:12 32.040351 -110.798051 121 10183ft 176kts
05-Jul-23 11:13 32.017401 -110.747263 121 11256ft 176kts
05-Jul-23 11:14 31.991145 -110.692163 121 11769ft 200kts
05-Jul-23 11:15 31.964233 -110.634786 121 12694ft 200kts
05-Jul-23 11:16 31.937290 -110.577434 122 13574ft 201kts
05-Jul-23 11:17 31.910401 -110.520286 123 14409ft 201kts
05-Jul-23 11:18 31.902988 -110.457279 73 15166ft 214kts
05-Jul-23 11:19 31.923603 -110.390890 72 15814ft 217kts
05-Jul-23 11:20 31.944528 -110.323768 73 16445ft 219kts
05-Jul-23 11:21 31.965548 -110.256201 73 17058ft 221kts
05-Jul-23 11:22 31.986751 -110.187880 73 17616ft 223kts
05-Jul-23 11:23 32.008076 -110.119033 73 18170ft 225kts
05-Jul-23 11:24 32.029543 -110.049565 73 18717ft 227kts
05-Jul-23 11:25 32.051165 -109.979436 74 19280ft 229kts
05-Jul-23 11:26 32.072956 -109.908603 74 19885ft 231kts
05-Jul-23 11:27 32.094884 -109.837162 74 20436ft 233kts
05-Jul-23 11:28 32.117008 -109.764918 74 20980ft 235kts
05-Jul-23 11:29 32.139232 -109.692162 74 21550ft 237kts
05-Jul-23 11:30 32.161712 -109.618414 74 22174ft 240kts
05-Jul-23 11:31 32.184334 -109.544015 74 22850ft 242kts
05-Jul-23 11:32 32.207085 -109.468998 74 23537ft 244kts
05-Jul-23 11:33 32.230053 -109.393090 74 24212ft 247kts
05-Jul-23 11:34 32.253223 -109.316314 74 24894ft 249kts
05-Jul-23 11:35 32.286674 -109.243326 42 25138ft 269kts
05-Jul-23 11:36 32.341460 -109.180691 42 25069ft 275kts
05-Jul-23 11:37 32.396576 -109.117652 41 25072ft 276kts
05-Jul-23 11:38 32.451820 -109.054370 40 25072ft 278kts
05-Jul-23 11:39 32.507410 -108.990589 39 25074ft 279kts
05-Jul-23 11:40 32.563117 -108.926561 39 25089ft 280kts
05-Jul-23 11:41 32.619017 -108.862199 39 25134ft 280kts
05-Jul-23 11:42 32.674715 -108.797943 39 25180ft 281kts
05-Jul-23 11:43 32.731089 -108.732785 39 25226ft 285kts
05-Jul-23 11:44 32.788548 -108.666254 39 25244ft 293kts
05-Jul-23 11:45 32.847667 -108.597667 39 25244ft 300kts
05-Jul-23 11:46 32.907915 -108.527630 39 25244ft 306kts
05-Jul-23 11:47 32.969574 -108.455794 39 25247ft 316kts
05-Jul-23 11:48 33.033017 -108.381730 39 25246ft 323kts
05-Jul-23 11:49 33.097634 -108.306133 39 25235ft 328kts
05-Jul-23 11:50 33.163028 -108.229479 39 25233ft 329kts
05-Jul-23 11:51 33.228211 -108.152887 39 25233ft 331kts
05-Jul-23 11:52 33.293928 -108.075470 39 25232ft 333kts
05-Jul-23 11:53 33.359670 -107.997854 39 25208ft 333kts
05-Jul-23 11:54 33.425566 -107.919866 39 25179ft 333kts
05-Jul-23 11:55 33.491388 -107.841812 39 25173ft 333kts
05-Jul-23 11:56 33.556828 -107.764021 39 25174ft 333kts
05-Jul-23 11:57 33.622460 -107.685824 39 25176ft 333kts
05-Jul-23 11:58 33.688167 -107.607360 39 25176ft 333kts
05-Jul-23 11:59 33.753648 -107.528997 39 25179ft 334kts
05-Jul-23 12:00 33.819346 -107.450188 39 25187ft 334kts
05-Jul-23 12:01 33.884918 -107.371336 39 25197ft 334kts
05-Jul-23 12:02 33.950781 -107.291968 40 25188ft 334kts
05-Jul-23 12:03 34.016156 -107.213002 39 25188ft 333kts
05-Jul-23 12:04 34.081493 -107.133909 40 25190ft 333kts
05-Jul-23 12:05 34.146609 -107.054879 40 25188ft 332kts
05-Jul-23 12:06 34.211721 -106.975670 39 25160ft 333kts
05-Jul-23 12:07 34.276933 -106.896169 39 25166ft 336kts
05-Jul-23 12:08 34.336593 -106.808825 74 25173ft 351kts
05-Jul-23 12:09 34.342600 -106.690379 88 25167ft 355kts
05-Jul-23 12:10 34.345945 -106.570822 89 25168ft 358kts
05-Jul-23 12:11 34.349166 -106.450157 89 25169ft 359kts
05-Jul-23 12:12 34.352275 -106.329513 89 25158ft 360kts
05-Jul-23 12:13 34.355271 -106.208630 89 25120ft 360kts
05-Jul-23 12:14 34.358163 -106.087064 89 24914ft 365kts
05-Jul-23 12:15 34.360991 -105.962826 89 24459ft 373kts
05-Jul-23 12:16 34.363747 -105.836168 89 23977ft 377kts
05-Jul-23 12:18 34.366360 -105.710160 89 23237ft 371kts
05-Jul-23 12:19 34.400078 -105.595918 61 22062ft 363kts
05-Jul-23 12:20 34.443946 -105.487216 62 21093ft 356kts
05-Jul-23 12:21 34.486645 -105.380859 62 20495ft 346kts
05-Jul-23 12:22 34.528186 -105.277063 62 19889ft 340kts
05-Jul-23 12:23 34.569136 -105.174426 63 19276ft 336kts
05-Jul-23 12:24 34.609528 -105.072871 62 18671ft 332kts
05-Jul-23 12:25 34.649325 -104.972506 62 18074ft 330kts
05-Jul-23 12:26 34.688940 -104.872313 62 17480ft 327kts
05-Jul-23 12:27 34.728085 -104.773018 62 16894ft 325kts
05-Jul-23 12:28 34.766937 -104.674157 62 16307ft 323kts
05-Jul-23 12:29 34.805244 -104.576383 62 15659ft 320kts
05-Jul-23 12:30 34.843300 -104.478970 63 14888ft 318kts
05-Jul-23 12:31 34.881031 -104.382095 63 14116ft 315kts
05-Jul-23 12:32 34.916659 -104.290373 64 13264ft 282kts
05-Jul-23 12:33 34.948093 -104.209211 64 12392ft 246kts
05-Jul-23 12:34 34.975564 -104.138190 64 11461ft 221kts
05-Jul-23 12:35 35.001184 -104.071769 66 10352ft 212kts
05-Jul-23 12:36 35.025673 -104.008164 68 9260ft 204kts
05-Jul-23 12:37 35.047806 -103.950524 68 9036ft 177kts
05-Jul-23 12:38 35.049685 -103.891927 104 8552ft 190kts
05-Jul-23 12:39 35.040076 -103.828395 104 7359ft 182kts
05-Jul-23 12:40 35.041306 -103.774733 52 6796ft 166kts
05-Jul-23 12:41 35.076078 -103.731411 49 6141ft 174kts
05-Jul-23 12:42 35.105928 -103.695143 49 5713ft 149kts
05-Jul-23 12:43 35.138026 -103.657054 45 5145ft 169kts
05-Jul-23 12:44 35.168064 -103.619584 50 4265ft 139kts
05-Jul-23 12:45 35.185132 -103.598652 44 4041ft 34kts
05-Jul-23 12:46 35.188359 -103.594927 339 4044ft 9kts
05-Jul-23 12:47 35.187699 -103.595509 225 4043ft 16kts
05-Jul-23 12:48 35.184379 -103.599558 224 4043ft 14kts
05-Jul-23 12:48 35.181959 -103.602525 224 4045ft 16kts
05-Jul-23 12:49 35.180263 -103.605809 270 4047ft 6kts
05-Jul-23 12:51 35.180782 -103.608198 355 4050ft 9kts
05-Jul-23 12:52 35.181577 -103.609605 193 4053ft 2kts
05-Jul-23 12:53 35.181478 -103.609553 128 4053ft 0kts
05-Jul-23 12:53 35.181478 -103.609553 128 4053ft 0kts
05-Jul-23 12:54 35.181478 -103.609553 128 4053ft 0kts

Navigation Log

Ident Type
Flight plan parsing failed, navigation log unavailable